createdAt,value
2023-05-28T00:00:19.589Z,0.52
2023-05-28T00:01:20.021Z,0.53
2023-05-28T00:02:19.001Z,0.53
2023-05-28T00:03:19.223Z,0.54
2023-05-28T00:04:19.142Z,0.53
2023-05-28T00:05:18.987Z,0.52
2023-05-28T00:06:18.942Z,0.53
2023-05-28T00:07:18.987Z,0.52
2023-05-28T00:08:18.955Z,0.53
2023-05-28T00:09:18.931Z,0.52
2023-05-28T00:10:18.925Z,0.52
2023-05-28T00:11:18.929Z,0.52
2023-05-28T00:12:18.911Z,0.52
2023-05-28T00:13:18.917Z,0.53
2023-05-28T00:14:18.921Z,0.52
2023-05-28T00:15:18.914Z,0.52
2023-05-28T00:16:18.935Z,0.53
2023-05-28T00:17:18.909Z,0.52
2023-05-28T00:18:18.871Z,0.53
2023-05-28T00:19:18.890Z,0.53
2023-05-28T00:20:18.900Z,0.52
2023-05-28T00:21:18.873Z,0.52
2023-05-28T00:22:18.820Z,0.52
2023-05-28T00:23:18.845Z,0.52
2023-05-28T00:24:18.912Z,0.53
2023-05-28T00:25:18.979Z,0.53
2023-05-28T00:26:19.032Z,0.53
2023-05-28T00:27:19.079Z,0.53
2023-05-28T00:28:19.148Z,0.53
2023-05-28T00:29:19.247Z,0.53
2023-05-28T00:30:19.311Z,0.53
2023-05-28T00:31:19.367Z,0.52
2023-05-28T00:32:19.421Z,0.52
2023-05-28T00:33:19.472Z,0.52
2023-05-28T00:34:19.507Z,0.53
2023-05-28T00:35:19.603Z,0.52
2023-05-28T00:36:20.596Z,0.53
2023-05-28T00:37:19.672Z,0.53
2023-05-28T00:38:19.768Z,0.52
2023-05-28T00:39:19.816Z,0.52
2023-05-28T00:40:19.907Z,0.53
2023-05-28T00:41:19.926Z,0.52
2023-05-28T00:42:19.994Z,0.52
2023-05-28T00:43:20.069Z,0.52
2023-05-28T00:44:20.101Z,0.52
2023-05-28T00:45:20.191Z,0.52
2023-05-28T00:46:20.370Z,0.53
2023-05-28T00:47:20.310Z,0.52
2023-05-28T00:48:20.399Z,0.52
2023-05-28T00:49:20.450Z,0.52
2023-05-28T00:50:20.489Z,0.52
2023-05-28T00:51:20.573Z,0.52
2023-05-28T00:52:20.622Z,0.52
2023-05-28T00:53:20.700Z,0.53
2023-05-28T00:54:21.580Z,0.53
2023-05-28T00:55:20.810Z,0.53
2023-05-28T00:56:21.118Z,0.52
2023-05-28T00:57:20.963Z,0.53
2023-05-28T00:58:21.013Z,0.53
2023-05-28T00:59:21.076Z,0.53
2023-05-28T01:00:21.123Z,0.52
2023-05-28T01:01:21.230Z,0.53
2023-05-28T01:02:21.397Z,0.53
2023-05-28T01:03:21.374Z,0.52
2023-05-28T01:04:22.329Z,0.52
2023-05-28T01:05:21.286Z,0.52
2023-05-28T01:06:21.294Z,0.52
2023-05-28T01:07:21.297Z,0.52
2023-05-28T01:08:21.291Z,0.53
2023-05-28T01:09:21.277Z,0.53
2023-05-28T01:10:21.261Z,0.53
2023-05-28T01:11:21.296Z,0.52
2023-05-28T01:12:21.250Z,0.52
2023-05-28T01:13:21.251Z,0.53
2023-05-28T01:14:21.241Z,0.52
2023-05-28T01:15:21.279Z,0.52
2023-05-28T01:16:21.414Z,0.52
2023-05-28T01:17:21.474Z,0.52
2023-05-28T01:18:21.460Z,0.52
2023-05-28T01:19:22.123Z,0.52
2023-05-28T01:20:21.630Z,0.52
2023-05-28T01:21:21.664Z,0.53
2023-05-28T01:22:21.765Z,0.52
2023-05-28T01:23:21.774Z,0.51
2023-05-28T01:24:21.879Z,0.52
2023-05-28T01:25:21.923Z,0.53
2023-05-28T01:26:21.969Z,0.52
2023-05-28T01:27:22.051Z,0.52
2023-05-28T01:28:22.086Z,0.51
2023-05-28T01:29:22.188Z,0.52
2023-05-28T01:30:22.241Z,0.52
2023-05-28T01:31:22.328Z,0.52
2023-05-28T01:32:22.377Z,0.52
2023-05-28T01:33:22.413Z,0.53
2023-05-28T01:34:22.471Z,0.52
2023-05-28T01:35:22.548Z,0.52
2023-05-28T01:36:22.592Z,0.53
2023-05-28T01:37:22.673Z,0.52
2023-05-28T01:38:24.419Z,0.53
2023-05-28T01:39:22.770Z,0.52
2023-05-28T01:40:22.842Z,0.52
2023-05-28T01:41:22.942Z,0.53
2023-05-28T01:42:22.957Z,0.52
2023-05-28T01:43:23.042Z,0.52
2023-05-28T01:44:23.084Z,0.52
2023-05-28T01:45:23.165Z,0.52
2023-05-28T01:46:23.247Z,0.52
2023-05-28T01:47:23.359Z,0.51
2023-05-28T01:48:23.331Z,0.52
2023-05-28T01:49:23.410Z,0.52
2023-05-28T01:50:23.460Z,0.51
2023-05-28T01:51:23.512Z,0.52
2023-05-28T01:52:23.578Z,0.51
2023-05-28T01:53:23.628Z,0.52
2023-05-28T01:54:24.626Z,0.52
2023-05-28T01:55:23.751Z,0.52
2023-05-28T01:56:23.824Z,0.53
2023-05-28T01:57:23.899Z,0.52
2023-05-28T01:58:23.935Z,0.52
2023-05-28T01:59:24.022Z,0.51
2023-05-28T02:00:24.050Z,0.52
2023-05-28T02:01:24.152Z,0.52
2023-05-28T02:02:24.179Z,0.51
2023-05-28T02:03:24.275Z,0.51
2023-05-28T02:04:24.279Z,0.52
2023-05-28T02:05:24.378Z,0.53
2023-05-28T02:06:24.437Z,0.51
2023-05-28T02:07:24.514Z,0.52
2023-05-28T02:08:24.564Z,0.52
2023-05-28T02:09:24.661Z,0.52
2023-05-28T02:10:24.704Z,0.52
2023-05-28T02:11:25.229Z,0.52
2023-05-28T02:12:24.812Z,0.52
2023-05-28T02:13:24.867Z,0.52
2023-05-28T02:14:24.932Z,0.51
2023-05-28T02:15:25.022Z,0.52
2023-05-28T02:16:25.202Z,0.53
2023-05-28T02:17:25.202Z,0.52
2023-05-28T02:18:25.194Z,0.52
2023-05-28T02:19:25.242Z,0.51
2023-05-28T02:20:25.396Z,0.51
2023-05-28T02:21:25.404Z,0.51
2023-05-28T02:22:25.465Z,0.52
2023-05-28T02:23:25.512Z,0.51
2023-05-28T02:24:25.583Z,0.51
2023-05-28T02:25:25.629Z,0.52
2023-05-28T02:26:25.700Z,0.51
2023-05-28T02:27:25.795Z,0.52
2023-05-28T02:28:25.833Z,0.51
2023-05-28T02:29:25.869Z,0.51
2023-05-28T02:30:25.905Z,0.52
2023-05-28T02:31:26.053Z,0.51
2023-05-28T02:32:26.035Z,0.51
2023-05-28T02:33:26.106Z,0.51
2023-05-28T02:34:26.176Z,0.52
2023-05-28T02:35:26.206Z,0.52
2023-05-28T02:36:26.296Z,0.51
2023-05-28T02:37:26.339Z,0.51
2023-05-28T02:38:26.359Z,0.52
2023-05-28T02:39:26.454Z,0.51
2023-05-28T02:40:26.589Z,0.50
2023-05-28T02:41:26.545Z,0.52
2023-05-28T02:42:26.595Z,0.52
2023-05-28T02:43:26.669Z,0.50
2023-05-28T02:44:26.717Z,0.52
2023-05-28T02:45:26.779Z,0.51
2023-05-28T02:46:26.955Z,0.51
2023-05-28T02:47:26.929Z,0.51
2023-05-28T02:48:26.972Z,0.52
2023-05-28T02:49:26.985Z,0.51
2023-05-28T02:50:27.058Z,0.51
2023-05-28T02:51:27.120Z,0.52
2023-05-28T02:52:27.158Z,0.50
2023-05-28T02:53:27.240Z,0.51
2023-05-28T02:54:27.263Z,0.51
2023-05-28T02:55:28.197Z,0.51
2023-05-28T02:56:28.160Z,0.50
2023-05-28T02:57:27.442Z,0.51
2023-05-28T02:58:27.491Z,0.51
2023-05-28T02:59:27.529Z,0.51
2023-05-28T03:00:27.618Z,0.51
2023-05-28T03:01:27.702Z,0.50
2023-05-28T03:02:27.793Z,0.51
2023-05-28T03:03:27.947Z,0.51
2023-05-28T03:04:27.866Z,0.51
2023-05-28T03:05:27.876Z,0.51
2023-05-28T03:06:27.956Z,0.51
2023-05-28T03:07:27.985Z,0.50
2023-05-28T03:08:28.077Z,0.51
2023-05-28T03:09:28.126Z,0.51
2023-05-28T03:10:28.158Z,0.52
2023-05-28T03:11:28.681Z,0.52
2023-05-28T03:12:28.266Z,0.51
2023-05-28T03:13:28.354Z,0.52
2023-05-28T03:14:28.375Z,0.51
2023-05-28T03:15:28.429Z,0.51
2023-05-28T03:16:28.504Z,0.51
2023-05-28T03:17:28.530Z,0.51
2023-05-28T03:18:28.549Z,0.51
2023-05-28T03:19:28.576Z,0.51
2023-05-28T03:20:28.650Z,0.51
2023-05-28T03:21:28.701Z,0.51
2023-05-28T03:22:28.669Z,0.50
2023-05-28T03:23:28.777Z,0.50
2023-05-28T03:24:28.877Z,0.51
2023-05-28T03:25:28.806Z,0.51
2023-05-28T03:26:28.893Z,0.51
2023-05-28T03:27:28.930Z,0.51
2023-05-28T03:28:28.967Z,0.51
2023-05-28T03:29:29.679Z,0.51
2023-05-28T03:30:29.017Z,0.51
2023-05-28T03:31:29.197Z,0.51
2023-05-28T03:32:29.120Z,0.52
2023-05-28T03:33:29.149Z,0.51
2023-05-28T03:34:29.190Z,0.51
2023-05-28T03:35:29.321Z,0.52
2023-05-28T03:36:29.276Z,0.52
2023-05-28T03:37:29.320Z,0.51
2023-05-28T03:38:29.370Z,0.52
2023-05-28T03:39:29.343Z,0.52
2023-05-28T03:40:29.384Z,0.52
2023-05-28T03:41:29.439Z,0.51
2023-05-28T03:42:29.482Z,0.52
2023-05-28T03:43:29.516Z,0.52
2023-05-28T03:44:29.564Z,0.51
2023-05-28T03:45:29.610Z,0.51
2023-05-28T03:46:29.692Z,0.52
2023-05-28T03:47:29.726Z,0.51
2023-05-28T03:48:29.760Z,0.51
2023-05-28T03:49:29.801Z,0.51
2023-05-28T03:50:29.853Z,0.51
2023-05-28T03:51:29.906Z,0.51
2023-05-28T03:52:29.957Z,0.51
2023-05-28T03:53:30.004Z,0.51
2023-05-28T03:54:30.040Z,0.51
2023-05-28T03:55:30.062Z,0.52
2023-05-28T03:56:30.148Z,0.51
2023-05-28T03:57:30.167Z,0.51
2023-05-28T03:58:30.207Z,0.51
2023-05-28T03:59:30.238Z,0.51
2023-05-28T04:00:30.241Z,0.51
2023-05-28T04:01:30.303Z,0.52
2023-05-28T04:02:30.384Z,0.51
2023-05-28T04:03:30.478Z,0.51
2023-05-28T04:04:30.536Z,0.51
2023-05-28T04:05:30.436Z,0.51
2023-05-28T04:06:30.490Z,0.50
2023-05-28T04:07:30.495Z,0.51
2023-05-28T04:08:30.473Z,0.51
2023-05-28T04:09:30.582Z,0.51
2023-05-28T04:10:30.560Z,0.52
2023-05-28T04:11:30.566Z,0.52
2023-05-28T04:12:30.600Z,0.52
2023-05-28T04:13:30.598Z,0.52
2023-05-28T04:14:30.611Z,0.51
2023-05-28T04:15:30.652Z,0.52
2023-05-28T04:16:30.777Z,0.51
2023-05-28T04:17:30.730Z,0.50
2023-05-28T04:18:30.725Z,0.52
2023-05-28T04:19:30.779Z,0.52
2023-05-28T04:20:30.864Z,0.52
2023-05-28T04:21:30.832Z,0.50
2023-05-28T04:22:30.839Z,0.51
2023-05-28T04:23:30.837Z,0.51
2023-05-28T04:24:30.882Z,0.51
2023-05-28T04:25:30.880Z,0.51
2023-05-28T04:26:30.911Z,0.52
2023-05-28T04:27:30.950Z,0.50
2023-05-28T04:28:30.942Z,0.50
2023-05-28T04:29:30.977Z,0.52
2023-05-28T04:30:31.011Z,0.52
2023-05-28T04:31:31.084Z,0.52
2023-05-28T04:32:31.053Z,0.51
2023-05-28T04:33:31.036Z,0.50
2023-05-28T04:34:31.087Z,0.50
2023-05-28T04:35:31.093Z,0.51
2023-05-28T04:36:31.246Z,0.52
2023-05-28T04:37:31.110Z,0.52
2023-05-28T04:38:31.176Z,0.52
2023-05-28T04:39:31.174Z,0.51
2023-05-28T04:40:31.215Z,0.52
2023-05-28T04:41:31.717Z,0.51
2023-05-28T04:42:31.272Z,0.51
2023-05-28T04:43:31.292Z,0.51
2023-05-28T04:44:31.322Z,0.51
2023-05-28T04:45:31.327Z,0.51
2023-05-28T04:46:31.739Z,0.51
2023-05-28T04:47:31.401Z,0.51
2023-05-28T04:48:31.355Z,0.52
2023-05-28T04:49:31.356Z,0.51
2023-05-28T04:50:31.465Z,0.52
2023-05-28T04:51:31.770Z,0.51
2023-05-28T04:52:31.463Z,0.50
2023-05-28T04:53:31.473Z,0.51
2023-05-28T04:54:31.491Z,0.51
2023-05-28T04:55:31.512Z,0.51
2023-05-28T04:56:31.736Z,0.51
2023-05-28T04:57:31.513Z,0.52
2023-05-28T04:58:32.234Z,0.52
2023-05-28T04:59:31.584Z,0.52
2023-05-28T05:00:31.588Z,0.51
2023-05-28T05:01:31.650Z,0.52
2023-05-28T05:02:31.645Z,0.51
2023-05-28T05:03:31.668Z,0.50
2023-05-28T05:04:31.672Z,0.51
2023-05-28T05:05:31.631Z,0.52
2023-05-28T05:06:31.665Z,0.51
2023-05-28T05:07:31.602Z,0.51
2023-05-28T05:08:31.592Z,0.52
2023-05-28T05:09:31.679Z,0.51
2023-05-28T05:10:31.598Z,0.51
2023-05-28T05:11:31.584Z,0.52
2023-05-28T05:12:31.603Z,0.52
2023-05-28T05:13:31.568Z,0.51
2023-05-28T05:14:31.574Z,0.52
2023-05-28T05:15:31.584Z,0.52
2023-05-28T05:16:31.632Z,0.52
2023-05-28T05:17:31.615Z,0.51
2023-05-28T05:18:31.554Z,0.52
2023-05-28T05:19:31.552Z,0.52
2023-05-28T05:20:31.596Z,0.52
2023-05-28T05:21:31.770Z,0.52
2023-05-28T05:22:31.533Z,0.51
2023-05-28T05:23:31.550Z,0.52
2023-05-28T05:24:31.547Z,0.52
2023-05-28T05:25:31.528Z,0.52
2023-05-28T05:26:31.517Z,0.51
2023-05-28T05:27:31.551Z,0.51
2023-05-28T05:28:31.501Z,0.51
2023-05-28T05:29:31.513Z,0.52
2023-05-28T05:30:31.514Z,0.52
2023-05-28T05:31:31.589Z,0.51
2023-05-28T05:32:31.532Z,0.52
2023-05-28T05:33:31.516Z,0.52
2023-05-28T05:34:31.509Z,0.52
2023-05-28T05:35:31.516Z,0.51
2023-05-28T05:36:31.497Z,0.52
2023-05-28T05:37:31.516Z,0.52
2023-05-28T05:38:31.475Z,0.51
2023-05-28T05:39:31.487Z,0.51
2023-05-28T05:40:31.506Z,0.52
2023-05-28T05:41:31.497Z,0.51
2023-05-28T05:42:31.465Z,0.51
2023-05-28T05:43:31.487Z,0.52
2023-05-28T05:44:31.471Z,0.52
2023-05-28T05:45:31.510Z,0.51
2023-05-28T05:46:31.581Z,0.51
2023-05-28T05:47:31.472Z,0.52
2023-05-28T05:48:31.494Z,0.51
2023-05-28T05:49:31.478Z,0.52
2023-05-28T05:50:31.461Z,0.52
2023-05-28T05:51:31.770Z,0.52
2023-05-28T05:52:31.458Z,0.52
2023-05-28T05:53:31.441Z,0.52
2023-05-28T05:54:31.448Z,0.52
2023-05-28T05:55:31.468Z,0.53
2023-05-28T05:56:31.764Z,0.52
2023-05-28T05:57:31.473Z,0.53
2023-05-28T05:58:31.447Z,0.51
2023-05-28T05:59:31.453Z,0.52
2023-05-28T06:00:31.460Z,0.52
2023-05-28T06:01:31.456Z,0.52
2023-05-28T06:02:31.600Z,0.52
2023-05-28T06:03:31.547Z,0.53
2023-05-28T06:04:31.477Z,0.52
2023-05-28T06:05:31.456Z,0.52
2023-05-28T06:06:31.464Z,0.53
2023-05-28T06:07:31.425Z,0.51
2023-05-28T06:08:31.432Z,0.52
2023-05-28T06:09:31.446Z,0.53
2023-05-28T06:10:31.416Z,0.52
2023-05-28T06:11:31.452Z,0.53
2023-05-28T06:12:31.511Z,0.52
2023-05-28T06:13:31.513Z,0.53
2023-05-28T06:14:31.526Z,0.53
2023-05-28T06:15:31.523Z,0.53
2023-05-28T06:16:31.573Z,0.53
2023-05-28T06:17:31.657Z,0.52
2023-05-28T06:18:31.510Z,0.52
2023-05-28T06:19:31.532Z,0.53
2023-05-28T06:20:31.594Z,0.52
2023-05-28T06:21:31.568Z,0.53
2023-05-28T06:22:31.594Z,0.52
2023-05-28T06:23:31.565Z,0.52
2023-05-28T06:24:31.585Z,0.53
2023-05-28T06:25:31.573Z,0.53
2023-05-28T06:26:31.588Z,0.53
2023-05-28T06:27:31.637Z,0.52
2023-05-28T06:28:31.602Z,0.52
2023-05-28T06:29:31.612Z,0.53
2023-05-28T06:30:31.594Z,0.53
2023-05-28T06:31:31.759Z,0.53
2023-05-28T06:32:31.610Z,0.52
2023-05-28T06:33:31.584Z,0.53
2023-05-28T06:34:31.584Z,0.53
2023-05-28T06:35:31.628Z,0.53
2023-05-28T06:36:31.635Z,0.52
2023-05-28T06:37:31.635Z,0.53
2023-05-28T06:38:31.659Z,0.53
2023-05-28T06:39:31.650Z,0.53
2023-05-28T06:40:31.658Z,0.53
2023-05-28T06:41:31.642Z,0.53
2023-05-28T06:42:31.677Z,0.53
2023-05-28T06:43:31.637Z,0.53
2023-05-28T06:44:31.644Z,0.54
2023-05-28T06:45:31.670Z,0.53
2023-05-28T06:46:31.707Z,0.54
2023-05-28T06:47:31.723Z,0.53
2023-05-28T06:48:31.710Z,0.54
2023-05-28T06:49:31.725Z,0.53
2023-05-28T06:50:31.742Z,0.53
2023-05-28T06:51:31.815Z,0.53
2023-05-28T06:52:31.711Z,0.53
2023-05-28T06:53:31.749Z,0.52
2023-05-28T06:54:31.763Z,0.54
2023-05-28T06:55:31.757Z,0.53
2023-05-28T06:56:31.768Z,0.53
2023-05-28T06:57:31.800Z,0.53
2023-05-28T06:58:31.788Z,0.54
2023-05-28T06:59:31.793Z,0.54
2023-05-28T07:00:31.807Z,0.54
2023-05-28T07:01:31.812Z,0.54
2023-05-28T07:02:31.848Z,0.54
2023-05-28T07:03:31.815Z,0.54
2023-05-28T07:04:31.802Z,0.52
2023-05-28T07:05:31.886Z,0.54
2023-05-28T07:06:31.809Z,0.54
2023-05-28T07:07:31.778Z,0.54
2023-05-28T07:08:31.784Z,0.52
2023-05-28T07:09:31.790Z,0.54
2023-05-28T07:10:31.792Z,0.54
2023-05-28T07:11:31.804Z,0.54
2023-05-28T07:12:31.775Z,0.54
2023-05-28T07:13:31.764Z,0.53
2023-05-28T07:14:31.744Z,0.54
2023-05-28T07:15:31.767Z,0.53
2023-05-28T07:16:31.930Z,0.53
2023-05-28T07:17:31.832Z,0.54
2023-05-28T07:18:31.824Z,0.54
2023-05-28T07:19:31.812Z,0.54
2023-05-28T07:20:31.823Z,0.53
2023-05-28T07:21:31.853Z,0.53
2023-05-28T07:22:31.814Z,0.54
2023-05-28T07:23:31.835Z,0.54
2023-05-28T07:24:31.838Z,0.54
2023-05-28T07:25:31.831Z,0.54
2023-05-28T07:26:32.324Z,0.54
2023-05-28T07:27:31.834Z,0.55
2023-05-28T07:28:31.894Z,0.53
2023-05-28T07:29:31.860Z,0.53
2023-05-28T07:30:31.866Z,0.54
2023-05-28T07:31:31.877Z,0.55
2023-05-28T07:32:31.979Z,0.54
2023-05-28T07:33:31.904Z,0.54
2023-05-28T07:34:31.898Z,0.54
2023-05-28T07:35:31.938Z,0.53
2023-05-28T07:36:31.900Z,0.55
2023-05-28T07:37:31.938Z,0.54
2023-05-28T07:38:31.939Z,0.55
2023-05-28T07:39:31.923Z,0.54
2023-05-28T07:40:31.923Z,0.55
2023-05-28T07:41:31.909Z,0.55
2023-05-28T07:42:31.930Z,0.54
2023-05-28T07:43:31.937Z,0.55
2023-05-28T07:44:31.917Z,0.55
2023-05-28T07:45:31.933Z,0.55
2023-05-28T07:46:31.962Z,0.55
2023-05-28T07:47:32.000Z,0.54
2023-05-28T07:48:31.932Z,0.55
2023-05-28T07:49:31.961Z,0.55
2023-05-28T07:50:31.943Z,0.55
2023-05-28T07:51:31.937Z,0.55
2023-05-28T07:52:31.957Z,0.55
2023-05-28T07:53:31.988Z,0.54
2023-05-28T07:54:31.997Z,0.54
2023-05-28T07:55:32.025Z,0.54
2023-05-28T07:56:31.992Z,0.54
2023-05-28T07:57:31.988Z,0.55
2023-05-28T07:58:31.987Z,0.55
2023-05-28T07:59:31.999Z,0.55
2023-05-28T08:00:31.980Z,0.54
2023-05-28T08:01:32.029Z,0.55
2023-05-28T08:02:32.143Z,0.55
2023-05-28T08:03:32.190Z,0.55
2023-05-28T08:04:32.068Z,0.55
2023-05-28T08:05:32.069Z,0.55
2023-05-28T08:06:32.044Z,0.54
2023-05-28T08:07:32.081Z,0.55
2023-05-28T08:08:32.281Z,0.54
2023-05-28T08:09:32.076Z,0.55
2023-05-28T08:10:32.089Z,0.54
2023-05-28T08:11:32.076Z,0.55
2023-05-28T08:12:32.090Z,0.54
2023-05-28T08:13:32.108Z,0.55
2023-05-28T08:14:32.100Z,0.55
2023-05-28T08:15:32.083Z,0.55
2023-05-28T08:16:32.152Z,0.55
2023-05-28T08:17:32.179Z,0.55
2023-05-28T08:18:32.129Z,0.56
2023-05-28T08:19:32.161Z,0.55
2023-05-28T08:20:32.161Z,0.55
2023-05-28T08:21:32.197Z,0.55
2023-05-28T08:22:32.180Z,0.55
2023-05-28T08:23:32.203Z,0.55
2023-05-28T08:24:32.221Z,0.55
2023-05-28T08:25:32.216Z,0.55
2023-05-28T08:26:32.348Z,0.55
2023-05-28T08:27:32.224Z,0.55
2023-05-28T08:28:32.238Z,0.55
2023-05-28T08:29:32.254Z,0.56
2023-05-28T08:30:32.273Z,0.56
2023-05-28T08:31:32.408Z,0.55
2023-05-28T08:32:32.339Z,0.56
2023-05-28T08:33:32.269Z,0.56
2023-05-28T08:34:32.284Z,0.55
2023-05-28T08:35:32.297Z,0.55
2023-05-28T08:36:32.253Z,0.56
2023-05-28T08:37:32.263Z,0.56
2023-05-28T08:38:32.289Z,0.56
2023-05-28T08:39:32.228Z,0.56
2023-05-28T08:40:32.238Z,0.55
2023-05-28T08:41:32.272Z,0.55
2023-05-28T08:42:32.238Z,0.55
2023-05-28T08:43:32.234Z,0.55
2023-05-28T08:44:32.263Z,0.56
2023-05-28T08:45:32.209Z,0.55
2023-05-28T08:46:32.264Z,0.56
2023-05-28T08:47:32.284Z,0.56
2023-05-28T08:48:32.263Z,0.56
2023-05-28T08:49:32.224Z,0.56
2023-05-28T08:50:32.234Z,0.56
2023-05-28T08:51:32.364Z,0.56
2023-05-28T08:52:32.234Z,0.56
2023-05-28T08:53:32.247Z,0.55
2023-05-28T08:54:32.283Z,0.56
2023-05-28T08:55:32.304Z,0.55
2023-05-28T08:56:32.381Z,0.56
2023-05-28T08:57:32.437Z,0.56
2023-05-28T08:58:32.266Z,0.56
2023-05-28T08:59:32.286Z,0.56
2023-05-28T09:00:32.280Z,0.56
2023-05-28T09:01:32.423Z,0.55
2023-05-28T09:02:32.295Z,0.56
2023-05-28T09:03:32.412Z,0.55
2023-05-28T09:04:32.287Z,0.56
2023-05-28T09:05:32.260Z,0.57
2023-05-28T09:06:32.331Z,0.56
2023-05-28T09:07:32.306Z,0.57
2023-05-28T09:08:32.314Z,0.57
2023-05-28T09:09:32.314Z,0.55
2023-05-28T09:10:32.321Z,0.56
2023-05-28T09:11:32.338Z,0.56
2023-05-28T09:12:32.347Z,0.57
2023-05-28T09:13:32.357Z,0.56
2023-05-28T09:14:32.361Z,0.57
2023-05-28T09:15:32.363Z,0.57
2023-05-28T09:16:32.394Z,0.57
2023-05-28T09:17:32.405Z,0.57
2023-05-28T09:18:32.380Z,0.56
2023-05-28T09:19:32.352Z,0.57
2023-05-28T09:20:32.489Z,0.56
2023-05-28T09:21:32.421Z,0.56
2023-05-28T09:22:32.428Z,0.58
2023-05-28T09:23:32.444Z,0.57
2023-05-28T09:24:32.459Z,0.56
2023-05-28T09:25:32.461Z,0.57
2023-05-28T09:26:32.472Z,0.58
2023-05-28T09:27:32.482Z,0.56
2023-05-28T09:28:32.467Z,0.56
2023-05-28T09:29:32.496Z,0.57
2023-05-28T09:30:32.552Z,0.57
2023-05-28T09:31:32.539Z,0.57
2023-05-28T09:32:32.518Z,0.57
2023-05-28T09:33:32.546Z,0.57
2023-05-28T09:34:32.556Z,0.58
2023-05-28T09:35:32.583Z,0.57
2023-05-28T09:36:32.576Z,0.57
2023-05-28T09:37:32.574Z,0.58
2023-05-28T09:38:32.581Z,0.58
2023-05-28T09:39:32.570Z,0.58
2023-05-28T09:40:32.564Z,0.58
2023-05-28T09:41:32.555Z,0.57
2023-05-28T09:42:32.590Z,0.58
2023-05-28T09:43:32.555Z,0.58
2023-05-28T09:44:32.544Z,0.58
2023-05-28T09:45:32.570Z,0.57
2023-05-28T09:46:32.949Z,0.57
2023-05-28T09:47:32.614Z,0.57
2023-05-28T09:48:32.543Z,0.58
2023-05-28T09:49:32.570Z,0.58
2023-05-28T09:50:32.582Z,0.58
2023-05-28T09:51:32.583Z,0.58
2023-05-28T09:52:32.590Z,0.59
2023-05-28T09:53:32.584Z,0.59
2023-05-28T09:54:32.600Z,0.59
2023-05-28T09:55:32.609Z,0.58
2023-05-28T09:56:34.479Z,0.59
2023-05-28T09:57:32.612Z,0.58
2023-05-28T09:58:32.588Z,0.58
2023-05-28T09:59:32.591Z,0.59
2023-05-28T10:00:32.587Z,0.58
2023-05-28T10:01:32.612Z,0.58
2023-05-28T10:02:32.670Z,0.58
2023-05-28T10:03:32.684Z,0.57
2023-05-28T10:04:32.576Z,0.58
2023-05-28T10:05:32.581Z,0.58
2023-05-28T10:06:32.590Z,0.58
2023-05-28T10:07:32.543Z,0.58
2023-05-28T10:08:32.518Z,0.58
2023-05-28T10:09:32.535Z,0.59
2023-05-28T10:10:32.492Z,0.58
2023-05-28T10:11:32.503Z,0.58
2023-05-28T10:12:32.522Z,0.59
2023-05-28T10:13:32.499Z,0.60
2023-05-28T10:14:32.484Z,0.59
2023-05-28T10:15:32.477Z,0.59
2023-05-28T10:16:32.950Z,0.59
2023-05-28T10:17:32.506Z,0.60
2023-05-28T10:18:32.455Z,0.60
2023-05-28T10:19:32.462Z,0.59
2023-05-28T10:20:32.484Z,0.60
2023-05-28T10:21:32.433Z,0.59
2023-05-28T10:22:32.414Z,0.59
2023-05-28T10:23:32.426Z,0.58
2023-05-28T10:24:32.479Z,0.59
2023-05-28T10:25:32.446Z,0.60
2023-05-28T10:26:32.423Z,0.60
2023-05-28T10:27:32.433Z,0.59
2023-05-28T10:28:32.396Z,0.58
2023-05-28T10:29:32.428Z,0.59
2023-05-28T10:30:32.381Z,0.60
2023-05-28T10:31:32.451Z,0.59
2023-05-28T10:32:32.395Z,0.60
2023-05-28T10:33:32.384Z,0.60
2023-05-28T10:34:32.372Z,0.59
2023-05-28T10:35:32.346Z,0.59
2023-05-28T10:36:32.324Z,0.60
2023-05-28T10:37:32.329Z,0.60
2023-05-28T10:38:32.324Z,0.59
2023-05-28T10:39:32.301Z,0.60
2023-05-28T10:40:32.321Z,0.60
2023-05-28T10:41:32.314Z,0.59
2023-05-28T10:42:32.283Z,0.60
2023-05-28T10:43:32.285Z,0.59
2023-05-28T10:44:32.268Z,0.60
2023-05-28T10:45:32.312Z,0.58
2023-05-28T10:46:32.341Z,0.61
2023-05-28T10:47:32.270Z,0.60
2023-05-28T10:48:32.267Z,0.59
2023-05-28T10:49:32.241Z,0.60
2023-05-28T10:50:32.255Z,0.60
2023-05-28T10:51:32.484Z,0.59
2023-05-28T10:52:32.240Z,0.60
2023-05-28T10:53:32.226Z,0.60
2023-05-28T10:54:32.191Z,0.60
2023-05-28T10:55:32.178Z,0.60
2023-05-28T10:56:32.457Z,0.60
2023-05-28T10:57:32.175Z,0.60
2023-05-28T10:58:32.169Z,0.59
2023-05-28T10:59:32.587Z,0.60
2023-05-28T11:00:32.168Z,0.59
2023-05-28T11:01:32.172Z,0.60
2023-05-28T11:02:32.161Z,0.60
2023-05-28T11:03:32.270Z,0.59
2023-05-28T11:04:32.100Z,0.60
2023-05-28T11:05:32.281Z,0.60
2023-05-28T11:06:32.124Z,0.60
2023-05-28T11:07:32.088Z,0.61
2023-05-28T11:08:32.080Z,0.60
2023-05-28T11:09:32.093Z,0.61
2023-05-28T11:10:32.618Z,0.59
2023-05-28T11:11:32.068Z,0.60
2023-05-28T11:12:32.166Z,0.60
2023-05-28T11:13:32.187Z,0.61
2023-05-28T11:14:32.225Z,0.60
2023-05-28T11:15:32.272Z,0.61
2023-05-28T11:16:32.555Z,0.60
2023-05-28T11:17:32.359Z,0.60
2023-05-28T11:18:32.415Z,0.60
2023-05-28T11:19:32.482Z,0.61
2023-05-28T11:20:32.558Z,0.61
2023-05-28T11:21:32.638Z,0.61
2023-05-28T11:22:32.630Z,0.61
2023-05-28T11:23:32.709Z,0.61
2023-05-28T11:24:32.762Z,0.61
2023-05-28T11:25:32.781Z,0.61
2023-05-28T11:26:32.867Z,0.61
2023-05-28T11:27:32.895Z,0.59
2023-05-28T11:28:32.962Z,0.61
2023-05-28T11:29:33.003Z,0.61
2023-05-28T11:30:33.087Z,0.62
2023-05-28T11:31:33.212Z,0.61
2023-05-28T11:32:33.316Z,0.59
2023-05-28T11:33:33.282Z,0.61
2023-05-28T11:34:33.290Z,0.60
2023-05-28T11:35:33.353Z,0.61
2023-05-28T11:36:33.407Z,0.60
2023-05-28T11:37:33.484Z,0.60
2023-05-28T11:38:33.533Z,0.61
2023-05-28T11:39:33.596Z,0.61
2023-05-28T11:40:33.638Z,0.60
2023-05-28T11:41:33.786Z,0.62
2023-05-28T11:42:33.767Z,0.61
2023-05-28T11:43:33.834Z,0.61
2023-05-28T11:44:33.875Z,0.61
2023-05-28T11:45:33.937Z,0.61
2023-05-28T11:46:34.059Z,0.60
2023-05-28T11:47:34.137Z,0.61
2023-05-28T11:48:34.152Z,0.61
2023-05-28T11:49:34.213Z,0.61
2023-05-28T11:50:34.326Z,0.61
2023-05-28T11:51:34.465Z,0.62
2023-05-28T11:52:34.417Z,0.61
2023-05-28T11:53:34.483Z,0.61
2023-05-28T11:54:34.515Z,0.61
2023-05-28T11:55:34.594Z,0.61
2023-05-28T11:56:34.975Z,0.62
2023-05-28T11:57:34.731Z,0.61
2023-05-28T11:58:34.789Z,0.61
2023-05-28T11:59:34.872Z,0.61
2023-05-28T12:00:35.040Z,0.61
2023-05-28T12:01:35.476Z,0.61
2023-05-28T12:02:35.133Z,0.62
2023-05-28T12:03:35.185Z,0.62
2023-05-28T12:04:35.132Z,0.61
2023-05-28T12:05:35.306Z,0.62
2023-05-28T12:06:40.237Z,0.61
2023-05-28T12:07:36.326Z,0.61
2023-05-28T12:08:35.256Z,0.61
2023-05-28T12:09:35.288Z,0.61
2023-05-28T12:10:35.285Z,0.62
2023-05-28T12:11:35.273Z,0.62
2023-05-28T12:12:35.285Z,0.63
2023-05-28T12:13:35.398Z,0.62
2023-05-28T12:14:35.402Z,0.61
2023-05-28T12:15:35.521Z,0.63
2023-05-28T12:16:35.555Z,0.63
2023-05-28T12:17:35.621Z,0.62
2023-05-28T12:18:35.664Z,0.62
2023-05-28T12:19:35.732Z,0.61
2023-05-28T12:20:35.899Z,0.62
2023-05-28T12:21:35.923Z,0.62
2023-05-28T12:22:35.975Z,0.63
2023-05-28T12:23:35.987Z,0.62
2023-05-28T12:24:36.017Z,0.63
2023-05-28T12:25:36.121Z,0.61
2023-05-28T12:26:36.179Z,0.62
2023-05-28T12:27:36.236Z,0.62
2023-05-28T12:28:36.286Z,0.63
2023-05-28T12:29:36.351Z,0.63
2023-05-28T12:30:36.446Z,0.63
2023-05-28T12:31:36.531Z,0.62
2023-05-28T12:32:36.586Z,0.62
2023-05-28T12:33:36.600Z,0.63
2023-05-28T12:34:36.644Z,0.63
2023-05-28T12:35:36.717Z,0.62
2023-05-28T12:36:37.014Z,0.63
2023-05-28T12:37:36.841Z,0.62
2023-05-28T12:38:36.925Z,0.62
2023-05-28T12:39:36.998Z,0.63
2023-05-28T12:40:37.023Z,0.63
2023-05-28T12:41:37.111Z,0.62
2023-05-28T12:42:37.158Z,0.62
2023-05-28T12:43:37.187Z,0.61
2023-05-28T12:44:37.273Z,0.63
2023-05-28T12:45:37.320Z,0.63
2023-05-28T12:46:37.517Z,0.61
2023-05-28T12:47:37.459Z,0.63
2023-05-28T12:48:37.518Z,0.62
2023-05-28T12:49:37.554Z,0.63
2023-05-28T12:50:37.646Z,0.62
2023-05-28T12:51:37.688Z,0.62
2023-05-28T12:52:37.755Z,0.62
2023-05-28T12:53:37.839Z,0.63
2023-05-28T12:54:37.872Z,0.63
2023-05-28T12:55:37.960Z,0.62
2023-05-28T12:56:37.973Z,0.62
2023-05-28T12:57:38.402Z,0.62
2023-05-28T12:58:38.103Z,0.62
2023-05-28T12:59:38.136Z,0.63
2023-05-28T13:00:38.235Z,0.63
2023-05-28T13:02:57.394Z,0.50
2023-05-28T13:03:57.377Z,0.50
2023-05-28T13:04:57.278Z,0.50
2023-05-28T13:05:57.241Z,0.50
2023-05-28T13:06:57.245Z,0.50
2023-05-28T13:07:57.266Z,0.50
2023-05-28T13:08:57.247Z,0.51
2023-05-28T13:09:57.253Z,0.51
2023-05-28T13:10:57.282Z,0.50
2023-05-28T13:11:57.329Z,0.50
2023-05-28T13:12:57.404Z,0.51
2023-05-28T13:13:57.460Z,0.51
2023-05-28T13:14:57.515Z,0.50
2023-05-28T13:15:57.585Z,0.50
2023-05-28T13:16:57.645Z,0.50
2023-05-28T13:17:57.783Z,0.51
2023-05-28T13:18:57.763Z,0.51
2023-05-28T13:19:57.836Z,0.51